createdAt,value
2019-03-27T00:02:14.804Z,4.10
2019-03-27T00:04:42.580Z,3.17
2019-03-27T00:07:10.554Z,3.20
2019-03-27T00:09:38.199Z,2.90
2019-03-27T00:12:06.091Z,3.90
2019-03-27T00:14:33.789Z,4.50
2019-03-27T00:17:01.403Z,3.43
2019-03-27T00:19:29.175Z,3.40
2019-03-27T00:21:56.844Z,3.13
2019-03-27T00:24:24.603Z,3.40
2019-03-27T00:26:52.579Z,3.47
2019-03-27T00:29:20.436Z,3.70
2019-03-27T00:31:48.071Z,2.83
2019-03-27T00:34:15.871Z,3.07
2019-03-27T00:36:43.533Z,3.10
2019-03-27T00:39:11.409Z,3.50
2019-03-27T00:41:39.277Z,3.93
2019-03-27T00:44:07.251Z,3.03
2019-03-27T00:46:35.000Z,3.93
2019-03-27T00:49:02.769Z,3.60
2019-03-27T00:51:30.646Z,3.30
2019-03-27T00:53:58.287Z,2.93
2019-03-27T00:56:26.082Z,3.33
2019-03-27T00:58:53.719Z,4.13
2019-03-27T01:01:21.396Z,3.10
2019-03-27T01:03:49.161Z,2.67
2019-03-27T01:06:16.925Z,3.73
2019-03-27T01:08:44.706Z,4.03
2019-03-27T01:11:12.674Z,3.50
2019-03-27T01:13:40.434Z,4.13
2019-03-27T01:16:08.306Z,4.97
2019-03-27T01:18:36.051Z,3.27
2019-03-27T01:21:04.055Z,2.77
2019-03-27T01:23:31.804Z,3.90
2019-03-27T01:25:59.551Z,3.63
2019-03-27T01:28:27.438Z,3.30
2019-03-27T01:30:55.220Z,3.23
2019-03-27T01:33:23.383Z,2.90
2019-03-27T01:35:51.012Z,2.97
2019-03-27T01:38:18.792Z,2.70
2019-03-27T01:40:46.584Z,2.53
2019-03-27T01:43:14.333Z,2.33
2019-03-27T01:45:52.478Z,2.90
2019-03-27T01:48:11.757Z,2.37
2019-03-27T01:50:39.480Z,2.83
2019-03-27T01:53:07.231Z,2.70
2019-03-27T01:55:34.942Z,3.87
2019-03-27T01:58:02.669Z,3.47
2019-03-27T02:00:30.339Z,3.07
2019-03-27T02:02:57.996Z,2.53
2019-03-27T02:05:25.876Z,3.53
2019-03-27T02:07:53.644Z,3.70
2019-03-27T02:10:21.398Z,3.33
2019-03-27T02:12:49.274Z,5.40
2019-03-27T02:15:17.138Z,5.47
2019-03-27T02:17:45.014Z,5.83
2019-03-27T02:20:12.986Z,4.00
2019-03-27T02:22:40.637Z,3.03
2019-03-27T02:25:08.920Z,4.00
2019-03-27T02:27:36.689Z,5.37
2019-03-27T02:30:08.554Z,5.08
2019-03-27T02:32:36.425Z,4.73
2019-03-27T02:35:04.681Z,4.40
2019-03-27T02:37:32.473Z,4.10
2019-03-27T02:40:00.437Z,5.60
2019-03-27T02:42:28.180Z,4.73
2019-03-27T02:44:55.974Z,4.03
2019-03-27T02:47:23.743Z,5.00
2019-03-27T02:49:51.613Z,4.67
2019-03-27T02:52:19.473Z,4.93
2019-03-27T02:54:47.342Z,6.67
2019-03-27T02:57:15.116Z,6.80
2019-03-27T02:59:42.799Z,5.23
2019-03-27T03:02:10.638Z,4.87
2019-03-27T03:04:38.267Z,7.37
2019-03-27T03:07:05.959Z,8.60
2019-03-27T03:09:33.722Z,7.03
2019-03-27T03:12:01.496Z,7.20
2019-03-27T03:14:29.366Z,6.53
2019-03-27T03:16:57.226Z,4.90
2019-03-27T03:19:24.888Z,4.07
2019-03-27T03:21:52.658Z,4.77
2019-03-27T03:24:20.419Z,5.83
2019-03-27T03:26:50.975Z,4.70
2019-03-27T03:29:17.585Z,4.70
2019-03-27T03:31:45.358Z,6.43
2019-03-27T03:34:13.107Z,6.40
2019-03-27T03:36:40.794Z,7.87
2019-03-27T03:39:08.455Z,6.47
2019-03-27T03:41:36.135Z,7.70
2019-03-27T03:44:03.894Z,9.67
2019-03-27T03:46:31.643Z,7.57
2019-03-27T03:48:59.416Z,7.50
2019-03-27T03:51:27.069Z,6.20
2019-03-27T03:53:54.839Z,6.80
2019-03-27T03:56:23.427Z,7.20
2019-03-27T03:58:52.119Z,6.50
2019-03-27T04:01:20.285Z,6.57
2019-03-27T04:03:48.352Z,6.40
2019-03-27T04:06:16.236Z,6.20
2019-03-27T04:08:43.881Z,7.53
2019-03-27T04:11:11.670Z,6.67
2019-03-27T04:13:39.441Z,5.93
2019-03-27T04:16:07.193Z,6.50
2019-03-27T04:18:34.958Z,6.20
2019-03-27T04:21:02.717Z,5.93
2019-03-27T04:23:30.504Z,5.43
2019-03-27T04:26:09.578Z,4.87
2019-03-27T04:28:27.652Z,5.30
2019-03-27T04:30:55.310Z,5.73
2019-03-27T04:33:23.089Z,5.20
2019-03-27T04:35:50.738Z,7.03
2019-03-27T04:38:18.531Z,6.37
2019-03-27T04:40:46.208Z,6.47
2019-03-27T04:43:13.932Z,6.43
2019-03-27T04:45:41.709Z,7.07
2019-03-27T04:48:09.582Z,6.40
2019-03-27T04:50:37.278Z,6.00
2019-03-27T04:53:05.011Z,5.80
2019-03-27T04:55:32.645Z,4.97
2019-03-27T04:58:00.343Z,5.57
2019-03-27T05:00:28.206Z,4.63
2019-03-27T05:02:55.983Z,5.20
2019-03-27T05:05:23.710Z,4.80
2019-03-27T05:07:51.507Z,4.60
2019-03-27T05:10:19.377Z,4.67
2019-03-27T05:12:47.065Z,4.63
2019-03-27T05:15:16.103Z,4.90
2019-03-27T05:17:46.348Z,5.27
2019-03-27T05:20:13.515Z,4.87
2019-03-27T05:22:41.264Z,4.80
2019-03-27T05:25:09.041Z,5.33
2019-03-27T05:27:36.910Z,5.47
2019-03-27T05:30:06.111Z,6.17
2019-03-27T05:32:33.782Z,7.27
2019-03-27T05:35:01.644Z,7.93
2019-03-27T05:37:29.343Z,7.50
2019-03-27T05:39:57.176Z,7.90
2019-03-27T05:42:24.828Z,9.83
2019-03-27T05:44:52.597Z,8.67
2019-03-27T05:47:20.370Z,11.00
2019-03-27T05:49:48.003Z,17.20
2019-03-27T05:52:16.006Z,18.50
2019-03-27T05:54:43.782Z,17.57
2019-03-27T05:57:11.546Z,16.00
2019-03-27T05:59:39.294Z,15.83
2019-03-27T06:02:07.061Z,16.33
2019-03-27T06:04:34.835Z,17.70
2019-03-27T06:07:02.703Z,16.87
2019-03-27T06:09:30.467Z,18.27
2019-03-27T06:11:58.234Z,21.53
2019-03-27T06:14:26.011Z,23.47
2019-03-27T06:16:53.769Z,18.73
2019-03-27T06:19:21.525Z,17.70
2019-03-27T06:21:49.397Z,10.30
2019-03-27T06:24:17.174Z,9.67
2019-03-27T06:26:44.933Z,9.37
2019-03-27T06:29:15.726Z,13.33
2019-03-27T06:31:42.301Z,13.77
2019-03-27T06:34:10.074Z,13.73
2019-03-27T06:36:37.877Z,14.77
2019-03-27T06:39:06.052Z,17.93
2019-03-27T06:41:33.764Z,16.03
2019-03-27T06:44:01.559Z,15.70
2019-03-27T06:46:29.199Z,14.40
2019-03-27T06:48:56.982Z,14.53
2019-03-27T06:51:25.345Z,12.60
2019-03-27T06:53:53.439Z,11.33
2019-03-27T06:56:21.174Z,10.30
2019-03-27T06:58:54.751Z,10.37
2019-03-27T07:01:18.452Z,9.23
2019-03-27T07:03:46.226Z,9.97
2019-03-27T07:06:13.863Z,10.93
2019-03-27T07:08:41.647Z,11.67
2019-03-27T07:11:09.425Z,11.97
2019-03-27T07:13:37.202Z,12.40
2019-03-27T07:16:05.576Z,13.22
2019-03-27T07:18:39.923Z,12.10
2019-03-27T07:21:02.956Z,10.43
2019-03-27T07:23:30.809Z,12.43
2019-03-27T07:25:58.582Z,12.50
2019-03-27T07:28:26.454Z,12.13
2019-03-27T07:30:54.099Z,11.03
2019-03-27T07:33:21.894Z,11.83
2019-03-27T07:35:49.647Z,11.33
2019-03-27T07:38:17.415Z,8.30
2019-03-27T07:40:45.073Z,7.77
2019-03-27T07:43:12.824Z,6.50
2019-03-27T07:45:40.607Z,5.57
2019-03-27T07:48:08.780Z,4.87
2019-03-27T07:50:36.545Z,5.03
2019-03-27T07:53:04.314Z,4.90
2019-03-27T07:55:32.090Z,4.40
2019-03-27T07:57:59.743Z,4.50
2019-03-27T08:00:27.455Z,5.43
2019-03-27T08:02:55.165Z,4.60
2019-03-27T08:05:22.936Z,4.27
2019-03-27T08:07:50.697Z,5.77
2019-03-27T08:10:18.332Z,4.00
2019-03-27T08:12:45.968Z,4.27
2019-03-27T08:15:13.892Z,3.23
2019-03-27T08:17:41.658Z,3.80
2019-03-27T08:20:09.747Z,3.30
2019-03-27T08:22:37.500Z,3.20
2019-03-27T08:25:06.307Z,3.80
2019-03-27T08:27:34.159Z,2.97
2019-03-27T08:30:01.838Z,3.30
2019-03-27T08:32:29.505Z,3.63
2019-03-27T08:34:57.213Z,3.40
2019-03-27T08:37:24.946Z,2.93
2019-03-27T08:39:52.619Z,3.30
2019-03-27T08:42:20.660Z,2.73
2019-03-27T08:44:48.526Z,3.00
2019-03-27T08:47:16.271Z,2.97
2019-03-27T08:49:44.062Z,2.00
2019-03-27T08:52:11.700Z,2.30
2019-03-27T08:54:39.485Z,2.43
2019-03-27T08:57:07.252Z,2.10
2019-03-27T08:59:34.895Z,1.83
2019-03-27T09:02:02.655Z,2.27
2019-03-27T09:04:30.543Z,3.50
2019-03-27T09:06:58.244Z,2.67
2019-03-27T09:09:25.920Z,2.43
2019-03-27T09:11:53.638Z,2.43
2019-03-27T09:14:21.449Z,2.50
2019-03-27T09:16:49.277Z,2.20
2019-03-27T09:19:17.073Z,2.80
2019-03-27T09:21:46.582Z,2.63
2019-03-27T09:24:14.214Z,2.40
2019-03-27T09:26:41.939Z,2.30
2019-03-27T09:29:09.619Z,2.67
2019-03-27T09:31:44.637Z,2.53
2019-03-27T09:34:06.811Z,2.27
2019-03-27T09:36:34.575Z,2.57
2019-03-27T09:39:02.328Z,2.33
2019-03-27T09:41:30.105Z,2.80
2019-03-27T09:43:58.183Z,2.40
2019-03-27T09:46:25.853Z,2.47
2019-03-27T09:48:53.510Z,2.70
2019-03-27T09:51:21.173Z,2.87
2019-03-27T09:53:48.873Z,2.10
2019-03-27T09:56:19.472Z,2.60
2019-03-27T09:58:46.917Z,2.23
2019-03-27T10:01:14.798Z,3.17
2019-03-27T10:03:42.556Z,3.10
2019-03-27T10:06:10.442Z,3.40
2019-03-27T10:08:38.143Z,2.97
2019-03-27T10:11:05.779Z,3.10
2019-03-27T10:13:33.531Z,3.03
2019-03-27T10:16:01.298Z,2.83
2019-03-27T10:18:29.358Z,2.77
2019-03-27T10:20:57.139Z,2.63
2019-03-27T10:23:25.512Z,4.83
2019-03-27T10:25:53.282Z,3.30
2019-03-27T10:28:21.037Z,3.10
2019-03-27T10:30:48.710Z,3.93
2019-03-27T10:33:16.465Z,3.20
2019-03-27T10:35:44.343Z,3.13
2019-03-27T10:38:12.096Z,2.77
2019-03-27T10:40:39.865Z,2.90
2019-03-27T10:43:07.632Z,2.87
2019-03-27T10:45:35.505Z,3.57
2019-03-27T10:48:03.281Z,2.97
2019-03-27T10:50:30.888Z,3.40
2019-03-27T10:52:58.798Z,2.87
2019-03-27T10:55:26.500Z,2.93
2019-03-27T10:57:54.229Z,3.50
2019-03-27T11:00:22.199Z,3.47
2019-03-27T11:02:49.973Z,2.90
2019-03-27T11:05:17.730Z,2.90
2019-03-27T11:07:45.393Z,2.67
2019-03-27T11:10:13.262Z,2.97
2019-03-27T11:12:43.183Z,3.07
2019-03-27T11:15:11.170Z,3.57
2019-03-27T11:17:38.933Z,3.37
2019-03-27T11:20:07.089Z,3.27
2019-03-27T11:22:34.739Z,3.53
2019-03-27T11:25:02.420Z,3.60
2019-03-27T11:27:30.065Z,4.30
2019-03-27T11:29:57.841Z,4.37
2019-03-27T11:32:25.617Z,4.27
2019-03-27T11:34:53.486Z,5.17
2019-03-27T11:37:21.456Z,5.00
2019-03-27T11:39:49.326Z,4.43
2019-03-27T11:42:16.972Z,4.47
2019-03-27T11:44:44.855Z,4.47
2019-03-27T11:47:12.725Z,4.20
2019-03-27T11:49:40.596Z,3.90
2019-03-27T11:52:08.464Z,3.97
2019-03-27T11:54:36.433Z,5.00
2019-03-27T11:57:04.189Z,4.20
2019-03-27T11:59:31.953Z,4.20
2019-03-27T12:01:59.725Z,4.40
2019-03-27T12:04:27.702Z,4.60
2019-03-27T12:06:55.578Z,4.30
2019-03-27T12:09:23.315Z,4.33
2019-03-27T12:11:50.994Z,3.90
2019-03-27T12:14:18.872Z,4.77
2019-03-27T12:16:49.756Z,4.20
2019-03-27T12:19:16.024Z,3.90
2019-03-27T12:21:44.221Z,4.33
2019-03-27T12:24:12.389Z,4.27
2019-03-27T12:26:40.148Z,3.80
2019-03-27T12:29:08.000Z,4.20
2019-03-27T12:31:35.794Z,3.77
2019-03-27T12:34:03.545Z,3.50
2019-03-27T12:36:31.310Z,4.53
2019-03-27T12:38:59.030Z,4.00
2019-03-27T12:41:26.673Z,4.33
2019-03-27T12:43:54.421Z,5.73
2019-03-27T12:46:22.068Z,3.47
2019-03-27T12:48:49.745Z,3.60
2019-03-27T12:51:17.565Z,3.57
2019-03-27T12:53:45.364Z,3.90
2019-03-27T12:56:13.241Z,3.60
2019-03-27T12:58:40.988Z,3.83
2019-03-27T13:01:08.654Z,3.50
2019-03-27T13:03:36.638Z,3.97
2019-03-27T13:06:05.611Z,3.30
2019-03-27T13:08:34.633Z,4.07
2019-03-27T13:11:02.397Z,4.47
2019-03-27T13:13:30.261Z,4.77
2019-03-27T13:15:57.958Z,3.70
2019-03-27T13:18:25.588Z,4.10
2019-03-27T13:20:53.359Z,4.17
2019-03-27T13:23:21.227Z,3.80
2019-03-27T13:25:49.091Z,3.77
2019-03-27T13:28:16.855Z,4.27
2019-03-27T13:30:44.622Z,4.63
2019-03-27T13:33:12.498Z,4.43
2019-03-27T13:35:40.549Z,4.40
2019-03-27T13:38:08.434Z,4.27
2019-03-27T13:40:36.140Z,3.90
2019-03-27T13:43:03.968Z,4.37
2019-03-27T13:45:32.689Z,3.13
2019-03-27T13:48:00.438Z,4.00
2019-03-27T13:50:28.166Z,4.00
2019-03-27T13:52:55.839Z,4.80
2019-03-27T13:55:23.700Z,9.73
2019-03-27T13:57:51.347Z,7.13
2019-03-27T14:00:19.245Z,3.47
2019-03-27T14:02:47.054Z,4.13
2019-03-27T14:05:15.092Z,9.50
2019-03-27T14:07:42.952Z,9.20
2019-03-27T14:10:10.853Z,11.40
2019-03-27T14:12:38.702Z,5.30
2019-03-27T14:15:10.044Z,6.47
2019-03-27T14:17:37.788Z,4.70
2019-03-27T14:20:07.117Z,6.27
2019-03-27T14:22:34.873Z,3.60
2019-03-27T14:25:02.742Z,3.93
2019-03-27T14:27:30.612Z,3.40
2019-03-27T14:29:58.284Z,3.33
2019-03-27T14:32:25.948Z,5.77
2019-03-27T14:34:53.996Z,2.53
2019-03-27T14:37:21.877Z,3.03
2019-03-27T14:39:50.662Z,2.93
2019-03-27T14:42:18.422Z,3.30
2019-03-27T14:44:46.097Z,2.73
2019-03-27T14:47:13.750Z,3.00
2019-03-27T14:49:41.529Z,2.93
2019-03-27T14:52:09.292Z,2.53
2019-03-27T14:54:37.053Z,4.17
2019-03-27T14:57:04.842Z,2.60
2019-03-27T14:59:32.771Z,3.03
2019-03-27T15:02:00.560Z,2.80
2019-03-27T15:04:28.274Z,2.80
2019-03-27T15:06:55.937Z,2.70
2019-03-27T15:09:23.637Z,2.53
2019-03-27T15:11:51.421Z,5.97
2019-03-27T15:14:19.185Z,8.63
2019-03-27T15:16:46.962Z,5.57
2019-03-27T15:19:14.611Z,2.70
2019-03-27T15:21:42.483Z,2.60
2019-03-27T15:24:10.454Z,3.17
2019-03-27T15:26:38.222Z,3.10
2019-03-27T15:29:06.098Z,2.70
2019-03-27T15:31:33.736Z,3.10
2019-03-27T15:34:01.526Z,2.83
2019-03-27T15:36:29.385Z,2.83
2019-03-27T15:38:57.150Z,2.33
2019-03-27T15:41:24.927Z,2.53
2019-03-27T15:43:52.784Z,2.57
2019-03-27T15:46:20.564Z,3.17
2019-03-27T15:48:48.199Z,4.00
2019-03-27T15:51:15.897Z,4.07
2019-03-27T15:53:47.086Z,3.17
2019-03-27T15:56:14.068Z,2.93
2019-03-27T15:58:41.844Z,3.50
2019-03-27T16:01:09.595Z,4.30
2019-03-27T16:03:37.482Z,3.37
2019-03-27T16:06:05.767Z,3.72
2019-03-27T16:08:33.399Z,4.17
2019-03-27T16:11:01.322Z,4.73
2019-03-27T16:13:28.951Z,3.40
2019-03-27T16:15:56.815Z,4.80
2019-03-27T16:18:24.689Z,7.87
2019-03-27T16:20:52.458Z,7.87
2019-03-27T16:23:20.213Z,8.50
2019-03-27T16:25:47.985Z,4.90
2019-03-27T16:28:15.648Z,4.30
2019-03-27T16:30:43.522Z,3.60
2019-03-27T16:33:12.916Z,10.10
2019-03-27T16:35:40.580Z,7.60
2019-03-27T16:38:08.329Z,5.23
2019-03-27T16:40:42.882Z,4.43
2019-03-27T16:43:10.637Z,5.37
2019-03-27T16:45:38.709Z,11.03
2019-03-27T16:48:06.494Z,7.90
2019-03-27T16:50:35.321Z,7.50
2019-03-27T16:53:03.752Z,8.10
2019-03-27T16:55:31.704Z,8.03
2019-03-27T16:57:59.592Z,13.23
2019-03-27T17:00:27.452Z,13.67
2019-03-27T17:02:55.207Z,11.47
2019-03-27T17:05:22.971Z,9.73
2019-03-27T17:07:50.688Z,17.23
2019-03-27T17:10:18.522Z,10.87
2019-03-27T17:12:46.298Z,14.73
2019-03-27T17:15:14.266Z,9.70
2019-03-27T17:17:41.937Z,13.13
2019-03-27T17:20:10.395Z,16.37
2019-03-27T17:22:38.094Z,12.10
2019-03-27T17:25:07.046Z,22.73
2019-03-27T17:27:34.942Z,38.93
2019-03-27T17:30:02.682Z,61.70
2019-03-27T17:32:30.460Z,54.70
2019-03-27T17:34:58.435Z,67.83
2019-03-27T17:37:26.211Z,69.53
2019-03-27T17:39:53.974Z,52.57
2019-03-27T17:42:21.837Z,20.03
2019-03-27T17:44:52.100Z,20.73
2019-03-27T17:47:19.006Z,19.07
2019-03-27T17:49:46.869Z,22.07
2019-03-27T17:52:14.504Z,30.17
2019-03-27T17:54:42.286Z,26.33
2019-03-27T17:57:10.066Z,23.93
2019-03-27T17:59:37.714Z,24.33
2019-03-27T18:02:05.501Z,26.90
2019-03-27T18:04:33.230Z,23.43
2019-03-27T18:07:01.132Z,16.67
2019-03-27T18:09:29.003Z,25.73
2019-03-27T18:11:56.766Z,79.40
2019-03-27T18:14:24.631Z,96.07
2019-03-27T18:16:52.499Z,88.90
2019-03-27T18:19:20.374Z,124.20
2019-03-27T18:21:48.137Z,80.53
2019-03-27T18:24:16.007Z,40.57
2019-03-27T18:26:43.834Z,68.47
2019-03-27T18:29:11.637Z,132.53
2019-03-27T18:31:39.503Z,161.47
2019-03-27T18:34:07.378Z,140.33
2019-03-27T18:36:35.247Z,33.90
2019-03-27T18:39:03.218Z,19.80
2019-03-27T18:41:30.864Z,30.10
2019-03-27T18:43:58.641Z,38.67
2019-03-27T18:46:26.514Z,29.30
2019-03-27T18:48:54.485Z,31.40
2019-03-27T18:51:22.451Z,43.07
2019-03-27T18:53:59.670Z,36.37
2019-03-27T18:56:19.624Z,42.13
2019-03-27T18:58:47.399Z,53.53
2019-03-27T19:01:15.152Z,59.60
2019-03-27T19:03:42.927Z,24.43
2019-03-27T19:06:10.690Z,25.93
2019-03-27T19:08:38.523Z,25.03
2019-03-27T19:11:06.325Z,19.03
2019-03-27T19:13:34.254Z,14.13
2019-03-27T19:16:02.163Z,21.33
2019-03-27T19:18:29.923Z,25.53
2019-03-27T19:20:57.689Z,27.33
2019-03-27T19:23:25.557Z,38.13
2019-03-27T19:25:53.446Z,20.40
2019-03-27T19:28:21.165Z,14.10
2019-03-27T19:30:48.857Z,15.20
2019-03-27T19:33:16.723Z,16.70
2019-03-27T19:35:44.590Z,32.43
2019-03-27T19:38:12.461Z,31.10
2019-03-27T19:40:40.107Z,21.23
2019-03-27T19:43:07.894Z,15.10
2019-03-27T19:45:35.836Z,14.23
2019-03-27T19:48:03.641Z,14.23
2019-03-27T19:50:31.597Z,20.17
2019-03-27T19:52:59.316Z,41.30
2019-03-27T19:55:27.237Z,28.87
2019-03-27T19:57:55.000Z,17.20
2019-03-27T20:00:22.943Z,14.40
2019-03-27T20:02:50.747Z,15.67
2019-03-27T20:05:18.496Z,13.80
2019-03-27T20:07:46.472Z,12.20
2019-03-27T20:10:14.548Z,12.40
2019-03-27T20:12:42.427Z,14.23
2019-03-27T20:15:12.789Z,13.63
2019-03-27T20:17:40.294Z,11.87
2019-03-27T20:20:08.477Z,11.90
2019-03-27T20:22:36.228Z,11.90
2019-03-27T20:25:05.441Z,12.43
2019-03-27T20:27:33.148Z,12.30
2019-03-27T20:30:00.795Z,13.43
2019-03-27T20:32:28.634Z,16.13
2019-03-27T20:34:56.399Z,14.63
2019-03-27T20:37:24.269Z,15.13
2019-03-27T20:39:52.038Z,14.70
2019-03-27T20:42:19.705Z,14.63
2019-03-27T20:44:47.447Z,13.10
2019-03-27T20:47:15.338Z,17.47
2019-03-27T20:49:43.083Z,19.53
2019-03-27T20:52:10.748Z,18.47
2019-03-27T20:54:38.636Z,18.03
2019-03-27T20:57:06.505Z,28.70
2019-03-27T20:59:34.475Z,35.13
2019-03-27T21:02:02.161Z,26.23
2019-03-27T21:04:30.007Z,21.07
2019-03-27T21:06:57.778Z,19.83
2019-03-27T21:09:25.744Z,15.67
2019-03-27T21:11:56.112Z,15.53
2019-03-27T21:14:23.229Z,14.27
2019-03-27T21:16:51.090Z,14.30
2019-03-27T21:19:19.157Z,15.50
2019-03-27T21:21:46.936Z,13.67
2019-03-27T21:24:14.715Z,15.53
2019-03-27T21:26:43.647Z,25.60
2019-03-27T21:29:11.396Z,15.17
2019-03-27T21:31:39.119Z,11.47
2019-03-27T21:34:06.865Z,11.10
2019-03-27T21:36:34.653Z,12.27
2019-03-27T21:39:02.505Z,11.80
2019-03-27T21:41:30.381Z,13.40
2019-03-27T21:43:58.250Z,12.70
2019-03-27T21:46:26.014Z,12.00
2019-03-27T21:48:53.891Z,14.97
2019-03-27T21:51:21.589Z,12.73
2019-03-27T21:53:50.761Z,11.93
2019-03-27T21:56:18.641Z,13.37
2019-03-27T21:58:46.313Z,13.43
2019-03-27T22:01:14.097Z,13.60
2019-03-27T22:03:41.923Z,15.20
2019-03-27T22:06:09.681Z,14.00
2019-03-27T22:08:37.445Z,15.40
2019-03-27T22:11:05.117Z,15.70
2019-03-27T22:13:32.885Z,13.50
2019-03-27T22:16:01.276Z,12.97
2019-03-27T22:18:29.239Z,14.30
2019-03-27T22:20:57.003Z,14.87
2019-03-27T22:23:24.771Z,12.60
2019-03-27T22:25:52.470Z,20.60
2019-03-27T22:28:20.402Z,14.80
2019-03-27T22:30:48.275Z,15.73
2019-03-27T22:33:16.133Z,16.17
2019-03-27T22:35:43.830Z,14.10
2019-03-27T22:38:11.771Z,14.57
2019-03-27T22:40:39.642Z,17.63
2019-03-27T22:43:07.505Z,18.70
2019-03-27T22:45:35.372Z,16.57
2019-03-27T22:48:03.175Z,17.17
2019-03-27T22:50:30.911Z,55.43
2019-03-27T22:52:58.682Z,38.40
2019-03-27T22:55:26.540Z,135.53
2019-03-27T22:57:54.318Z,30.80
2019-03-27T23:00:23.614Z,25.83
2019-03-27T23:02:51.475Z,16.93
2019-03-27T23:05:19.344Z,20.33
2019-03-27T23:07:47.218Z,27.27
2019-03-27T23:10:15.184Z,19.10
2019-03-27T23:12:43.051Z,22.13
2019-03-27T23:15:10.919Z,20.77
2019-03-27T23:17:38.786Z,25.47
2019-03-27T23:20:06.694Z,20.33
2019-03-27T23:22:34.534Z,50.63
2019-03-27T23:25:02.401Z,24.00
2019-03-27T23:27:30.169Z,20.63
2019-03-27T23:29:58.025Z,18.77
2019-03-27T23:32:25.726Z,18.07
2019-03-27T23:34:53.464Z,17.80
2019-03-27T23:37:21.325Z,17.20
2019-03-27T23:39:49.191Z,16.33
2019-03-27T23:42:17.063Z,14.70
2019-03-27T23:44:44.766Z,16.10
2019-03-27T23:47:12.593Z,16.30
2019-03-27T23:49:40.460Z,14.53
2019-03-27T23:52:08.430Z,13.63
2019-03-27T23:54:36.306Z,13.57
2019-03-27T23:57:04.071Z,13.97
2019-03-27T23:59:31.841Z,14.70
